createdAt,value
2023-03-16T00:02:20.264Z,100859.15
2023-03-16T00:05:29.674Z,100867.66
2023-03-16T00:08:44.156Z,100869.63
2023-03-16T00:11:54.133Z,100875.29
2023-03-16T00:15:04.644Z,100874.28
2023-03-16T00:18:18.828Z,100878.59
2023-03-16T00:21:24.349Z,100876.45
2023-03-16T00:24:32.359Z,100882.05
2023-03-16T00:27:37.845Z,100885.73
2023-03-16T00:30:49.280Z,100882.20
2023-03-16T00:34:02.900Z,100885.59
2023-03-16T00:37:17.180Z,100884.50
2023-03-16T00:40:37.254Z,100879.13
2023-03-16T00:43:44.887Z,100878.92
2023-03-16T00:47:04.153Z,100875.98
2023-03-16T00:50:15.683Z,100875.17
2023-03-16T00:53:30.429Z,100876.27
2023-03-16T00:56:43.083Z,100885.23
2023-03-16T01:00:02.409Z,100889.92
2023-03-16T01:03:10.972Z,100890.19
2023-03-16T01:06:20.962Z,100892.67
2023-03-16T01:09:30.630Z,100897.90
2023-03-16T01:12:49.118Z,100898.14
2023-03-16T01:15:57.340Z,100896.78
2023-03-16T01:19:02.924Z,100899.15
2023-03-16T01:22:13.233Z,100906.33
2023-03-16T01:25:24.296Z,100907.08
2023-03-16T01:28:34.251Z,100911.94
2023-03-16T01:31:39.878Z,100920.70
2023-03-16T01:34:45.975Z,100915.31
2023-03-16T01:37:56.863Z,100917.63
2023-03-16T01:41:04.862Z,100921.45
2023-03-16T01:44:14.225Z,100921.50
2023-03-16T01:47:20.060Z,100924.58
2023-03-16T01:50:28.899Z,100925.83
2023-03-16T01:53:37.198Z,100921.77
2023-03-16T01:56:50.431Z,100924.13
2023-03-16T02:00:09.786Z,100925.89
2023-03-16T02:03:34.653Z,100921.83
2023-03-16T02:06:50.444Z,100928.77
2023-03-16T02:10:02.482Z,100929.02
2023-03-16T02:13:11.254Z,100930.47
2023-03-16T02:16:22.747Z,100931.41
2023-03-16T02:19:39.625Z,100931.65
2023-03-16T02:23:06.078Z,100933.58
2023-03-16T02:26:17.295Z,100933.77
2023-03-16T02:29:30.161Z,100932.66
2023-03-16T02:32:39.075Z,100938.03
2023-03-16T02:35:44.666Z,100934.45
2023-03-16T02:38:52.500Z,100930.13
2023-03-16T02:42:01.454Z,100933.14
2023-03-16T02:45:08.278Z,100942.58
2023-03-16T02:48:28.218Z,100945.80
2023-03-16T02:51:33.919Z,100947.73
2023-03-16T02:54:49.471Z,100948.98
2023-03-16T02:58:05.499Z,100950.13
2023-03-16T03:01:13.449Z,100954.73
2023-03-16T03:04:23.492Z,100951.27
2023-03-16T03:07:31.933Z,100948.89
2023-03-16T03:10:42.920Z,100953.42
2023-03-16T03:13:51.047Z,100951.75
2023-03-16T03:17:00.053Z,100952.58
2023-03-16T03:20:17.815Z,100952.52
2023-03-16T03:23:32.261Z,100954.70
2023-03-16T03:26:40.045Z,100959.49
2023-03-16T03:29:48.560Z,100958.52
2023-03-16T03:32:56.843Z,100964.51
2023-03-16T03:36:04.819Z,100964.30
2023-03-16T03:39:13.608Z,100963.83
2023-03-16T03:42:28.455Z,100962.79
2023-03-16T03:45:40.523Z,100960.90
2023-03-16T03:48:46.274Z,100966.98
2023-03-16T03:51:52.114Z,100969.77
2023-03-16T03:55:14.144Z,100966.52
2023-03-16T03:58:19.848Z,100972.10
2023-03-16T04:01:32.621Z,100974.81
2023-03-16T04:04:38.864Z,100976.47
2023-03-16T04:07:44.279Z,100976.25
2023-03-16T04:11:02.065Z,100973.20
2023-03-16T04:14:07.815Z,100971.79
2023-03-16T04:17:17.114Z,100970.67
2023-03-16T04:20:34.277Z,100975.67
2023-03-16T04:23:42.638Z,100978.66
2023-03-16T04:26:48.648Z,100984.31
2023-03-16T04:30:11.261Z,100983.40
2023-03-16T04:33:19.941Z,100987.86
2023-03-16T04:36:28.209Z,100988.61
2023-03-16T04:39:36.078Z,100990.02
2023-03-16T04:42:41.952Z,100992.83
2023-03-16T04:45:55.162Z,100996.08
2023-03-16T04:49:19.587Z,100999.26
2023-03-16T04:52:45.256Z,100998.83
2023-03-16T04:55:53.150Z,100996.84
2023-03-16T04:59:01.826Z,100990.48
2023-03-16T05:02:11.429Z,100993.88
2023-03-16T05:05:26.989Z,100994.06
2023-03-16T05:08:35.525Z,100998.59
2023-03-16T05:11:54.832Z,100996.23
2023-03-16T05:15:00.510Z,100997.08
2023-03-16T05:18:34.856Z,101003.54
2023-03-16T05:21:45.807Z,101007.30
2023-03-16T05:24:56.515Z,101005.20
2023-03-16T05:28:06.481Z,101007.12
2023-03-16T05:31:20.575Z,101007.71
2023-03-16T05:34:35.739Z,101007.48
2023-03-16T05:37:52.835Z,101012.46
2023-03-16T05:41:05.925Z,101011.84
2023-03-16T05:44:34.654Z,101009.98
2023-03-16T05:48:12.210Z,101012.98
2023-03-16T05:51:37.884Z,101013.33
2023-03-16T05:54:45.826Z,101015.16
2023-03-16T05:57:54.426Z,101016.63
2023-03-16T06:01:12.833Z,101017.26
2023-03-16T06:04:19.653Z,101019.63
2023-03-16T06:07:26.016Z,101018.99
2023-03-16T06:10:35.857Z,101018.52
2023-03-16T06:13:51.385Z,101015.09
2023-03-16T06:17:10.385Z,101023.22
2023-03-16T06:20:19.503Z,101021.59
2023-03-16T06:23:30.599Z,101023.04
2023-03-16T06:26:41.546Z,101024.66
2023-03-16T06:29:49.392Z,101029.55
2023-03-16T06:33:00.162Z,101028.23
2023-03-16T06:36:09.592Z,101028.58
2023-03-16T06:39:18.120Z,101024.27
2023-03-16T06:42:26.775Z,101025.76
2023-03-16T06:45:35.786Z,101035.36
2023-03-16T06:48:42.103Z,101031.65
2023-03-16T06:51:47.847Z,101034.55
2023-03-16T06:54:53.742Z,101039.63
2023-03-16T06:58:03.362Z,101043.27
2023-03-16T07:01:09.010Z,101045.97
2023-03-16T07:04:16.959Z,101049.02
2023-03-16T07:07:24.536Z,101050.25
2023-03-16T07:10:32.527Z,101055.16
2023-03-16T07:13:38.429Z,101061.25
2023-03-16T07:16:44.786Z,101060.63
2023-03-16T07:19:50.781Z,101066.27
2023-03-16T07:22:57.256Z,101064.06
2023-03-16T07:26:03.710Z,101072.23
2023-03-16T07:29:10.868Z,101073.89
2023-03-16T07:32:17.281Z,101077.38
2023-03-16T07:35:28.431Z,101080.33
2023-03-16T07:38:41.422Z,101084.15
2023-03-16T07:41:49.765Z,101080.69
2023-03-16T07:44:58.985Z,101087.89
2023-03-16T07:48:07.311Z,101087.20
2023-03-16T07:51:19.825Z,101088.52
2023-03-16T07:54:36.001Z,101086.55
2023-03-16T07:57:47.943Z,101093.60
2023-03-16T08:00:58.810Z,101101.89
2023-03-16T08:04:04.815Z,101106.00
2023-03-16T08:07:15.484Z,101106.73
2023-03-16T08:10:39.758Z,101109.05
2023-03-16T08:13:56.762Z,101107.52
2023-03-16T08:17:07.298Z,101117.63
2023-03-16T08:20:21.762Z,101116.43
2023-03-16T08:23:36.210Z,101118.02
2023-03-16T08:26:45.439Z,101122.27
2023-03-16T08:29:54.093Z,101127.75
2023-03-16T08:33:23.139Z,101130.63
2023-03-16T08:36:31.786Z,101139.66
2023-03-16T08:39:51.735Z,101139.08
2023-03-16T08:43:17.219Z,101146.73
2023-03-16T08:46:24.396Z,101146.05
2023-03-16T08:49:52.335Z,101154.21
2023-03-16T08:52:58.305Z,101153.92
2023-03-16T08:56:04.829Z,101160.77
2023-03-16T08:59:30.826Z,101159.67
2023-03-16T09:02:45.753Z,101162.11
2023-03-16T09:05:51.615Z,101164.97
2023-03-16T09:09:09.509Z,101165.04
2023-03-16T09:12:26.426Z,101166.46
2023-03-16T09:15:51.817Z,101171.34
2023-03-16T09:19:16.956Z,101178.33
2023-03-16T09:22:28.559Z,101183.61
2023-03-16T09:25:54.654Z,101177.68
2023-03-16T09:29:21.920Z,101177.27
2023-03-16T09:32:30.953Z,101179.07
2023-03-16T09:35:46.527Z,101176.30
2023-03-16T09:39:03.842Z,101177.75
2023-03-16T09:42:35.324Z,101175.27
2023-03-16T09:45:54.157Z,101174.36
2023-03-16T09:49:00.500Z,101178.15
2023-03-16T09:52:33.438Z,101174.62
2023-03-16T09:55:50.186Z,101176.02
2023-03-16T09:59:10.555Z,101182.25
2023-03-16T10:02:32.088Z,101183.02
2023-03-16T10:05:41.123Z,101185.45
2023-03-16T10:08:53.166Z,101199.45
2023-03-16T10:11:59.797Z,101196.86
2023-03-16T10:15:11.907Z,101196.63
2023-03-16T10:18:32.511Z,101203.91
2023-03-16T10:21:52.517Z,101201.09
2023-03-16T10:25:12.958Z,101200.61
2023-03-16T10:28:29.665Z,101197.70
2023-03-16T10:31:38.449Z,101202.74
2023-03-16T10:34:45.639Z,101198.45
2023-03-16T10:38:10.556Z,101207.42
2023-03-16T10:41:25.533Z,101203.21
2023-03-16T10:44:30.994Z,101207.23
2023-03-16T10:47:45.086Z,101210.40
2023-03-16T10:51:04.935Z,101205.83
2023-03-16T10:54:16.031Z,101213.06
2023-03-16T10:57:34.075Z,101206.17
2023-03-16T11:00:45.571Z,101202.39
2023-03-16T11:03:52.241Z,101207.02
2023-03-16T11:07:09.248Z,101217.93
2023-03-16T11:10:34.587Z,101215.68
2023-03-16T11:13:47.169Z,101209.77
2023-03-16T11:17:10.795Z,101209.80
2023-03-16T11:20:18.323Z,101213.09
2023-03-16T11:23:35.781Z,101218.27
2023-03-16T11:26:55.786Z,101215.52
2023-03-16T11:30:24.963Z,101219.70
2023-03-16T11:33:51.237Z,101220.77
2023-03-16T11:37:19.412Z,101216.55
2023-03-16T11:40:44.788Z,101218.73
2023-03-16T11:43:52.912Z,101209.85
2023-03-16T11:47:18.864Z,101208.31
2023-03-16T11:50:49.823Z,101221.27
2023-03-16T11:54:02.601Z,101241.15
2023-03-16T11:57:29.528Z,101237.05
2023-03-16T12:00:51.667Z,101223.94
2023-03-16T12:04:07.619Z,101229.80
2023-03-16T12:07:25.925Z,101241.77
2023-03-16T12:10:36.326Z,101243.91
2023-03-16T12:14:01.682Z,101240.20
2023-03-16T12:17:11.146Z,101231.21
2023-03-16T12:20:29.601Z,101245.13
2023-03-16T12:23:53.486Z,101240.53
2023-03-16T12:27:02.638Z,101224.11
2023-03-16T12:30:25.961Z,101211.73
2023-03-16T12:33:44.764Z,101219.96
2023-03-16T12:37:19.656Z,101246.00
2023-03-16T12:40:33.931Z,101248.88
2023-03-16T12:44:03.316Z,101247.91
2023-03-16T12:47:28.520Z,101249.77
2023-03-16T12:50:34.401Z,101226.30
2023-03-16T12:53:55.127Z,101228.73
2023-03-16T12:57:22.312Z,101218.34
2023-03-16T13:00:36.004Z,101227.13
2023-03-16T13:03:45.577Z,101236.48
2023-03-16T13:07:06.155Z,101241.64
2023-03-16T13:10:14.763Z,101254.11
2023-03-16T13:13:30.472Z,101247.44
2023-03-16T13:16:39.165Z,101243.28
2023-03-16T13:19:47.786Z,101247.52
2023-03-16T13:23:10.507Z,101254.27
2023-03-16T13:26:42.411Z,101241.65
2023-03-16T13:30:18.068Z,101255.34
2023-03-16T13:33:44.092Z,101247.14
2023-03-16T13:37:14.529Z,101266.54
2023-03-16T13:40:22.268Z,101270.96
2023-03-16T13:43:44.257Z,101269.23
2023-03-16T13:46:52.574Z,101265.29
2023-03-16T13:50:03.806Z,101268.02
2023-03-16T13:53:15.870Z,101270.30
2023-03-16T13:56:33.256Z,101267.20
2023-03-16T14:00:05.847Z,101263.96
2023-03-16T14:03:16.329Z,101258.73
2023-03-16T14:06:42.409Z,101251.71
2023-03-16T14:09:52.595Z,101249.23
2023-03-16T14:12:59.745Z,101261.34
2023-03-16T14:16:14.500Z,101254.30
2023-03-16T14:19:24.686Z,101248.39
2023-03-16T14:22:31.960Z,101241.02
2023-03-16T14:25:40.919Z,101248.71
2023-03-16T14:29:09.576Z,101258.41
2023-03-16T14:32:28.326Z,101272.14
2023-03-16T14:35:57.213Z,101265.65
2023-03-16T14:39:13.350Z,101256.60
2023-03-16T14:42:22.260Z,101249.68
2023-03-16T14:45:48.587Z,101232.33
2023-03-16T14:49:00.335Z,101261.35
2023-03-16T14:52:19.000Z,101257.36
2023-03-16T14:55:24.922Z,101259.79
2023-03-16T14:58:36.521Z,101265.02
2023-03-16T15:01:46.858Z,101255.34
2023-03-16T15:05:20.944Z,101256.02
2023-03-16T15:08:43.561Z,101272.29
2023-03-16T15:11:55.380Z,101265.61
2023-03-16T15:15:16.177Z,101278.56
2023-03-16T15:18:24.232Z,101272.93
2023-03-16T15:21:41.247Z,101277.27
2023-03-16T15:24:46.681Z,101278.58
2023-03-16T15:27:52.847Z,101284.54
2023-03-16T15:31:02.546Z,101280.08
2023-03-16T15:34:07.995Z,101274.36
2023-03-16T15:37:15.539Z,101267.80
2023-03-16T15:40:25.300Z,101266.55
2023-03-16T15:43:32.188Z,101266.44
2023-03-16T15:46:46.805Z,101261.05
2023-03-16T15:49:59.598Z,101256.38
2023-03-16T15:53:30.397Z,101256.86
2023-03-16T15:56:52.770Z,101258.92
2023-03-16T16:00:02.471Z,101259.48
2023-03-16T16:03:12.826Z,101254.88
2023-03-16T16:06:36.742Z,101254.36
2023-03-16T16:09:44.390Z,101255.02
2023-03-16T16:12:52.297Z,101258.71
2023-03-16T16:16:00.129Z,101256.06
2023-03-16T16:19:05.824Z,101253.49
2023-03-16T16:22:16.539Z,101253.85
2023-03-16T16:25:33.178Z,101259.17
2023-03-16T16:28:59.601Z,101264.63
2023-03-16T16:32:24.276Z,101258.85
2023-03-16T16:35:39.770Z,101262.64
2023-03-16T16:38:45.596Z,101268.30
2023-03-16T16:42:04.218Z,101268.44
2023-03-16T16:45:15.826Z,101267.73
2023-03-16T16:48:30.283Z,101263.86
2023-03-16T16:51:56.137Z,101266.27
2023-03-16T16:55:11.943Z,101261.89
2023-03-16T16:58:24.592Z,101260.81
2023-03-16T17:01:51.902Z,101253.80
2023-03-16T17:05:08.319Z,101250.76
2023-03-16T17:08:14.330Z,101244.66
2023-03-16T17:11:28.762Z,101240.48
2023-03-16T17:14:54.509Z,101245.53
2023-03-16T17:18:07.968Z,101240.92
2023-03-16T17:21:17.141Z,101240.08
2023-03-16T17:24:35.703Z,101244.54
2023-03-16T17:28:01.505Z,101243.55
2023-03-16T17:31:27.696Z,101244.06
2023-03-16T17:34:42.364Z,101240.56
2023-03-16T17:38:17.689Z,101244.02
2023-03-16T17:41:26.699Z,101245.55
2023-03-16T17:44:37.107Z,101240.39
2023-03-16T17:47:52.597Z,101241.81
2023-03-16T17:51:15.239Z,101241.16
2023-03-16T17:54:34.756Z,101239.55
2023-03-16T17:57:54.363Z,101243.77
2023-03-16T18:01:28.350Z,101246.80
2023-03-16T18:04:54.065Z,101246.85
2023-03-16T18:08:21.907Z,101251.23
2023-03-16T18:11:35.623Z,101249.42
2023-03-16T18:14:58.442Z,101246.51
2023-03-16T18:18:08.734Z,101251.48
2023-03-16T18:21:33.585Z,101245.34
2023-03-16T18:24:59.999Z,101243.90
2023-03-16T18:28:09.925Z,101245.40
2023-03-16T18:31:21.940Z,101247.61
2023-03-16T18:34:47.647Z,101243.80
2023-03-16T18:38:18.025Z,101241.27
2023-03-16T18:41:44.747Z,101246.10
2023-03-16T18:45:04.300Z,101249.69
2023-03-16T18:48:24.841Z,101250.35
2023-03-16T18:51:51.729Z,101254.15
2023-03-16T18:55:16.741Z,101255.57
2023-03-16T18:58:41.131Z,101261.77
2023-03-16T19:02:17.692Z,101254.10
2023-03-16T19:05:30.252Z,101258.65
2023-03-16T19:08:42.009Z,101263.52
2023-03-16T19:11:53.279Z,101268.06
2023-03-16T19:15:03.368Z,101267.79
2023-03-16T19:18:29.411Z,101270.34
2023-03-16T19:21:56.484Z,101272.53
2023-03-16T19:25:25.260Z,101274.00
2023-03-16T19:28:43.328Z,101278.87
2023-03-16T19:32:00.848Z,101277.85
2023-03-16T19:35:18.521Z,101275.33
2023-03-16T19:38:24.696Z,101286.85
2023-03-16T19:41:34.439Z,101286.88
2023-03-16T19:44:51.197Z,101282.46
2023-03-16T19:48:12.746Z,101280.71
2023-03-16T19:51:32.902Z,101276.10
2023-03-16T19:54:44.109Z,101274.36
2023-03-16T19:58:19.079Z,101277.12
2023-03-16T20:01:33.025Z,101275.34
2023-03-16T20:04:38.650Z,101279.86
2023-03-16T20:07:44.550Z,101282.92
2023-03-16T20:11:15.483Z,101279.63
2023-03-16T20:14:41.532Z,101260.73
2023-03-16T20:17:51.139Z,101261.89
2023-03-16T20:21:17.569Z,101254.39
2023-03-16T20:24:24.137Z,101251.13
2023-03-16T20:27:29.941Z,101244.95
2023-03-16T20:30:43.704Z,101234.77
2023-03-16T20:34:00.455Z,101232.63
2023-03-16T20:37:20.825Z,101233.11
2023-03-16T20:40:40.142Z,101239.82
2023-03-16T20:44:00.059Z,101241.95
2023-03-16T20:47:18.990Z,101248.75
2023-03-16T20:50:34.000Z,101243.48
2023-03-16T20:53:58.766Z,101239.34
2023-03-16T20:57:12.399Z,101233.64
2023-03-16T21:00:39.196Z,101226.77
2023-03-16T21:03:52.061Z,101221.75
2023-03-16T21:07:10.851Z,101223.52
2023-03-16T21:10:28.314Z,101224.38
2023-03-16T21:13:36.935Z,101218.11
2023-03-16T21:16:45.535Z,101229.88
2023-03-16T21:20:02.499Z,101236.42
2023-03-16T21:23:22.036Z,101234.48
2023-03-16T21:26:30.004Z,101230.08
2023-03-16T21:29:56.935Z,101231.66
2023-03-16T21:33:26.076Z,101232.77
2023-03-16T21:36:44.341Z,101229.47
2023-03-16T21:40:02.600Z,101228.44
2023-03-16T21:43:28.687Z,101230.98
2023-03-16T21:46:47.367Z,101233.20
2023-03-16T21:49:53.881Z,101234.64
2023-03-16T21:53:11.522Z,101230.84
2023-03-16T21:56:30.653Z,101231.77
2023-03-16T21:59:45.764Z,101238.06
2023-03-16T22:03:03.422Z,101243.14
2023-03-16T22:06:23.797Z,101241.89
2023-03-16T22:09:49.567Z,101246.51
2023-03-16T22:13:00.179Z,101244.64
2023-03-16T22:16:27.060Z,101251.45
2023-03-16T22:19:53.162Z,101253.70
2023-03-16T22:23:27.547Z,101261.29
2023-03-16T22:26:53.801Z,101270.85
2023-03-16T22:30:22.190Z,101283.09
2023-03-16T22:33:48.709Z,101279.29
2023-03-16T22:37:17.479Z,101271.09
2023-03-16T22:40:43.846Z,101262.40
2023-03-16T22:44:13.352Z,101245.12
2023-03-16T22:47:39.240Z,101238.88
2023-03-16T22:51:05.644Z,101231.67
2023-03-16T22:54:31.669Z,101228.95
2023-03-16T22:58:01.442Z,101222.27
2023-03-16T23:01:30.166Z,101223.77
2023-03-16T23:04:56.080Z,101227.25
2023-03-16T23:08:23.855Z,101232.21
2023-03-16T23:11:53.436Z,101245.61
2023-03-16T23:15:21.150Z,101244.63
2023-03-16T23:18:46.781Z,101249.15
2023-03-16T23:22:13.646Z,101251.29
2023-03-16T23:25:39.376Z,101246.81
2023-03-16T23:29:05.231Z,101236.83
2023-03-16T23:32:31.209Z,101226.64
2023-03-16T23:35:57.111Z,101233.19
2023-03-16T23:39:24.077Z,101228.14
2023-03-16T23:42:49.846Z,101228.16
2023-03-16T23:46:18.422Z,101229.63
2023-03-16T23:49:44.480Z,101222.65
2023-03-16T23:53:13.925Z,101226.11
2023-03-16T23:56:38.070Z,101226.92
